createdAt,value
2022-12-22T00:00:01.811Z,2.05
2022-12-22T00:02:29.022Z,2.05
2022-12-22T00:04:50.904Z,2.07
2022-12-22T00:07:11.583Z,2.04
2022-12-22T00:09:32.276Z,2.10
2022-12-22T00:11:52.965Z,2.11
2022-12-22T00:14:13.679Z,2.01
2022-12-22T00:16:33.952Z,2.07
2022-12-22T00:18:54.145Z,2.10
2022-12-22T00:21:14.672Z,2.05
2022-12-22T00:23:35.330Z,2.05
2022-12-22T00:25:56.889Z,2.04
2022-12-22T00:28:17.886Z,2.03
2022-12-22T00:30:41.317Z,2.05
2022-12-22T00:33:04.699Z,2.11
2022-12-22T00:35:31.849Z,2.09
2022-12-22T00:37:56.158Z,1.96
2022-12-22T00:40:20.325Z,2.02
2022-12-22T00:42:41.765Z,2.10
2022-12-22T00:45:01.978Z,2.06
2022-12-22T00:47:22.704Z,2.08
2022-12-22T00:49:45.145Z,2.07
2022-12-22T00:52:05.657Z,2.06
2022-12-22T00:54:31.695Z,2.05
2022-12-22T00:56:52.243Z,2.02
2022-12-22T00:59:15.627Z,2.07
2022-12-22T01:01:36.370Z,2.03
2022-12-22T01:03:57.046Z,2.09
2022-12-22T01:06:20.468Z,2.12
2022-12-22T01:08:42.050Z,2.08
2022-12-22T01:11:02.554Z,2.11
2022-12-22T01:13:31.706Z,2.12
2022-12-22T01:15:52.167Z,2.10
2022-12-22T01:18:14.378Z,2.12
2022-12-22T01:20:34.763Z,2.17
2022-12-22T01:22:55.342Z,2.11
2022-12-22T01:25:16.352Z,2.19
2022-12-22T01:27:36.761Z,2.19
2022-12-22T01:29:57.161Z,2.23
2022-12-22T01:32:17.688Z,2.22
2022-12-22T01:34:44.021Z,2.27
2022-12-22T01:37:05.619Z,2.26
2022-12-22T01:39:27.356Z,2.23
2022-12-22T01:41:49.043Z,2.33
2022-12-22T01:44:09.865Z,2.29
2022-12-22T01:47:00.932Z,2.32
2022-12-22T01:49:21.345Z,2.28
2022-12-22T01:51:45.759Z,2.31
2022-12-22T01:54:07.067Z,2.33
2022-12-22T01:56:30.363Z,2.29
2022-12-22T01:58:59.969Z,2.23
2022-12-22T02:01:20.549Z,2.27
2022-12-22T02:03:42.104Z,2.33
2022-12-22T02:06:16.470Z,2.32
2022-12-22T02:08:45.707Z,2.27
2022-12-22T02:11:41.458Z,2.27
2022-12-22T02:14:35.660Z,2.21
2022-12-22T02:17:18.542Z,2.23
2022-12-22T02:20:15.132Z,2.16
2022-12-22T02:23:07.388Z,2.15
2022-12-22T02:25:41.990Z,2.09
2022-12-22T02:28:06.180Z,2.13
2022-12-22T02:30:29.342Z,2.09
2022-12-22T02:32:54.600Z,2.11
2022-12-22T02:35:15.144Z,2.26
2022-12-22T02:37:53.858Z,2.15
2022-12-22T02:40:34.451Z,2.15
2022-12-22T02:43:37.411Z,2.25
2022-12-22T02:46:03.620Z,2.27
2022-12-22T02:48:31.923Z,2.24
2022-12-22T02:51:06.427Z,2.27
2022-12-22T02:53:27.686Z,2.25
2022-12-22T02:55:49.562Z,2.29
2022-12-22T02:58:10.920Z,2.34
2022-12-22T03:00:32.016Z,2.35
2022-12-22T03:02:54.989Z,2.33
2022-12-22T03:05:15.807Z,2.35
2022-12-22T03:07:36.168Z,2.29
2022-12-22T03:09:56.609Z,2.32
2022-12-22T03:12:17.358Z,2.27
2022-12-22T03:14:37.903Z,2.32
2022-12-22T03:16:58.589Z,2.24
2022-12-22T03:19:18.877Z,2.27
2022-12-22T03:21:39.271Z,2.27
2022-12-22T03:24:00.545Z,2.40
2022-12-22T03:26:02.631Z,2.39
2022-12-22T03:28:07.575Z,2.33
2022-12-22T03:30:09.779Z,2.35
2022-12-22T03:32:13.719Z,2.39
2022-12-22T03:34:15.846Z,2.41
2022-12-22T03:36:17.691Z,2.40
2022-12-22T03:38:19.898Z,2.43
2022-12-22T03:40:22.023Z,2.33
2022-12-22T03:42:42.785Z,2.35
2022-12-22T03:45:03.379Z,2.31
2022-12-22T03:47:05.331Z,2.36
2022-12-22T03:49:13.285Z,2.46
2022-12-22T03:51:15.140Z,2.51
2022-12-22T03:53:18.132Z,2.49
2022-12-22T03:55:20.054Z,2.47
2022-12-22T03:57:21.947Z,2.49
2022-12-22T03:59:23.835Z,2.42
2022-12-22T04:01:28.607Z,2.39
2022-12-22T04:03:30.755Z,2.32
2022-12-22T04:05:33.636Z,2.35
2022-12-22T04:07:35.622Z,2.44
2022-12-22T04:09:57.388Z,2.50
2022-12-22T04:12:17.512Z,2.51
2022-12-22T04:14:19.777Z,2.53
2022-12-22T04:16:22.786Z,2.62
2022-12-22T04:18:26.658Z,2.66
2022-12-22T04:20:29.407Z,2.65
2022-12-22T04:22:31.332Z,2.62
2022-12-22T04:24:33.205Z,2.62
2022-12-22T04:26:35.395Z,2.60
2022-12-22T04:28:37.385Z,2.60
2022-12-22T04:30:39.261Z,2.67
2022-12-22T04:32:41.171Z,2.70
2022-12-22T04:34:44.013Z,2.71
2022-12-22T04:36:45.957Z,2.72
2022-12-22T04:38:47.898Z,2.72
2022-12-22T04:40:50.761Z,2.81
2022-12-22T04:42:53.754Z,2.74
2022-12-22T04:44:58.789Z,2.72
2022-12-22T04:47:00.722Z,2.75
2022-12-22T04:49:03.680Z,2.78
2022-12-22T04:51:06.655Z,2.77
2022-12-22T04:53:08.557Z,2.73
2022-12-22T04:55:11.454Z,2.71
2022-12-22T04:57:13.450Z,2.68
2022-12-22T04:59:15.434Z,2.68
2022-12-22T05:01:19.306Z,2.70
2022-12-22T05:03:22.110Z,2.72
2022-12-22T05:05:24.027Z,2.68
2022-12-22T05:07:25.944Z,2.72
2022-12-22T05:09:27.844Z,2.73
2022-12-22T05:11:31.895Z,2.78
2022-12-22T05:13:34.053Z,2.77
2022-12-22T05:15:39.037Z,2.80
2022-12-22T05:17:40.965Z,2.77
2022-12-22T05:19:44.829Z,2.73
2022-12-22T05:21:47.777Z,2.81
2022-12-22T05:23:50.929Z,2.81
2022-12-22T05:25:52.965Z,2.84
2022-12-22T05:27:54.852Z,2.84
2022-12-22T05:29:56.855Z,2.85
2022-12-22T05:31:59.766Z,2.85
2022-12-22T05:34:04.667Z,2.85
2022-12-22T05:36:07.910Z,2.82
2022-12-22T05:38:09.854Z,2.80
2022-12-22T05:40:13.241Z,2.78
2022-12-22T05:42:36.062Z,2.82
2022-12-22T05:44:37.958Z,2.85
2022-12-22T05:46:39.940Z,2.85
2022-12-22T05:48:45.031Z,2.87
2022-12-22T05:50:47.174Z,2.87
2022-12-22T05:52:49.384Z,2.91
2022-12-22T05:54:51.329Z,2.89
2022-12-22T05:56:53.216Z,2.91
2022-12-22T05:58:55.140Z,2.91
2022-12-22T06:00:58.708Z,2.91
2022-12-22T06:03:02.811Z,2.88
2022-12-22T06:05:05.437Z,2.87
2022-12-22T06:07:09.474Z,2.86
2022-12-22T06:09:11.350Z,2.84
2022-12-22T06:11:13.351Z,2.83
2022-12-22T06:13:15.337Z,2.90
2022-12-22T06:15:17.356Z,2.94
2022-12-22T06:17:20.231Z,2.97
2022-12-22T06:19:23.132Z,2.97
2022-12-22T06:21:26.253Z,2.97
2022-12-22T06:23:28.246Z,2.90
2022-12-22T06:25:31.247Z,2.93
2022-12-22T06:27:33.264Z,2.99
2022-12-22T06:29:35.177Z,3.03
2022-12-22T06:31:37.163Z,3.05
2022-12-22T06:33:39.136Z,3.08
2022-12-22T06:35:42.072Z,3.07
2022-12-22T06:37:45.454Z,3.06
2022-12-22T06:39:48.460Z,3.05
2022-12-22T06:42:09.837Z,3.12
2022-12-22T06:44:11.846Z,3.09
2022-12-22T06:46:13.762Z,3.09
2022-12-22T06:48:17.701Z,3.05
2022-12-22T06:50:19.617Z,3.08
2022-12-22T06:52:21.566Z,3.09
2022-12-22T06:54:26.409Z,3.08
2022-12-22T06:56:29.584Z,3.09
2022-12-22T06:58:31.462Z,3.07
2022-12-22T07:00:34.216Z,3.10
2022-12-22T07:02:36.586Z,3.13
2022-12-22T07:04:39.881Z,3.10
2022-12-22T07:06:42.894Z,3.08
2022-12-22T07:08:50.540Z,3.03
2022-12-22T07:10:59.198Z,3.08
2022-12-22T07:13:19.582Z,3.07
2022-12-22T07:15:21.685Z,3.11
2022-12-22T07:17:23.633Z,3.14
2022-12-22T07:19:25.618Z,3.10
2022-12-22T07:21:27.553Z,3.10
2022-12-22T07:23:30.905Z,3.10
2022-12-22T07:25:32.854Z,3.04
2022-12-22T07:27:34.803Z,3.11
2022-12-22T07:29:36.923Z,3.07
2022-12-22T07:31:39.894Z,3.07
2022-12-22T07:33:48.889Z,3.08
2022-12-22T07:36:04.525Z,3.10
2022-12-22T07:38:06.422Z,3.10
2022-12-22T07:40:09.025Z,3.15
2022-12-22T07:42:32.080Z,3.18
2022-12-22T07:44:34.141Z,3.25
2022-12-22T07:46:39.832Z,3.22
2022-12-22T07:49:17.141Z,3.27
2022-12-22T07:51:22.405Z,3.40
2022-12-22T07:53:27.429Z,3.48
2022-12-22T07:55:32.262Z,3.46
2022-12-22T07:57:36.100Z,3.49
2022-12-22T07:59:40.106Z,3.52
2022-12-22T08:01:43.475Z,3.54
2022-12-22T08:03:45.563Z,3.32
2022-12-22T08:05:47.514Z,3.23
2022-12-22T08:07:52.994Z,3.20
2022-12-22T08:09:54.900Z,3.24
2022-12-22T08:12:00.350Z,3.13
2022-12-22T08:14:02.589Z,3.16
2022-12-22T08:16:05.934Z,3.20
2022-12-22T08:18:08.936Z,3.21
2022-12-22T08:20:11.398Z,3.29
2022-12-22T08:22:13.334Z,3.30
2022-12-22T08:24:16.370Z,3.55
2022-12-22T08:26:20.055Z,3.77
2022-12-22T08:28:22.738Z,3.88
2022-12-22T08:30:25.008Z,4.09
2022-12-22T08:32:28.545Z,4.13
2022-12-22T08:34:30.735Z,4.23
2022-12-22T08:36:40.362Z,4.31
2022-12-22T08:38:43.253Z,4.20
2022-12-22T08:40:45.765Z,4.01
2022-12-22T08:42:52.542Z,3.86
2022-12-22T08:45:05.764Z,3.71
2022-12-22T08:47:13.040Z,3.42
2022-12-22T08:49:19.036Z,3.32
2022-12-22T08:51:21.070Z,3.34
2022-12-22T08:54:03.473Z,3.32
2022-12-22T08:55:55.486Z,3.38
2022-12-22T08:57:57.509Z,3.52
2022-12-22T08:59:59.569Z,3.74
2022-12-22T09:02:05.512Z,3.81
2022-12-22T09:04:07.638Z,3.90
2022-12-22T09:06:13.548Z,3.93
2022-12-22T09:08:15.467Z,3.95
2022-12-22T09:10:17.457Z,3.93
2022-12-22T09:12:19.454Z,3.93
2022-12-22T09:14:22.453Z,3.91
2022-12-22T09:16:28.080Z,3.93
2022-12-22T09:18:31.227Z,3.94
2022-12-22T09:20:34.173Z,3.95
2022-12-22T09:22:36.130Z,3.94
2022-12-22T09:24:40.061Z,3.96
2022-12-22T09:26:42.224Z,4.01
2022-12-22T09:28:50.531Z,4.01
2022-12-22T09:30:54.977Z,4.04
2022-12-22T09:32:56.944Z,3.84
2022-12-22T09:34:58.857Z,3.75
2022-12-22T09:37:00.810Z,3.79
2022-12-22T09:39:07.271Z,3.74
2022-12-22T09:41:32.270Z,3.89
2022-12-22T09:43:35.407Z,3.88
2022-12-22T09:45:37.420Z,3.83
2022-12-22T09:47:41.639Z,3.74
2022-12-22T09:49:45.934Z,3.84
2022-12-22T09:51:56.041Z,3.84
2022-12-22T09:54:01.174Z,3.77
2022-12-22T09:56:03.541Z,3.79
2022-12-22T09:58:17.424Z,3.75
2022-12-22T10:00:28.731Z,3.68
2022-12-22T10:02:56.572Z,3.74
2022-12-22T10:05:28.960Z,3.80
2022-12-22T10:07:42.810Z,3.88
2022-12-22T10:09:52.285Z,3.89
2022-12-22T10:11:56.899Z,3.92
2022-12-22T10:13:59.813Z,3.95
2022-12-22T10:16:01.918Z,3.97
2022-12-22T10:18:17.091Z,3.92
2022-12-22T10:20:22.330Z,4.01
2022-12-22T10:22:32.282Z,3.98
2022-12-22T10:24:36.287Z,4.02
2022-12-22T10:26:38.751Z,3.99
2022-12-22T10:28:50.953Z,3.99
2022-12-22T10:31:11.771Z,3.94
2022-12-22T10:33:18.698Z,3.92
2022-12-22T10:35:20.659Z,3.87
2022-12-22T10:37:31.527Z,3.84
2022-12-22T10:39:38.756Z,3.83
2022-12-22T10:41:44.871Z,3.82
2022-12-22T10:44:11.887Z,3.81
2022-12-22T10:46:14.208Z,3.79
2022-12-22T10:48:16.902Z,3.75
2022-12-22T10:50:21.521Z,3.75
2022-12-22T10:52:32.824Z,3.76
2022-12-22T10:54:36.451Z,3.73
2022-12-22T10:56:38.419Z,3.72
2022-12-22T10:58:53.942Z,3.70
2022-12-22T11:01:05.913Z,3.73
2022-12-22T11:03:12.436Z,3.71
2022-12-22T11:05:14.489Z,3.71
2022-12-22T11:07:18.641Z,3.79
2022-12-22T11:09:33.854Z,3.75
2022-12-22T11:11:52.176Z,3.93
2022-12-22T11:13:54.421Z,3.99
2022-12-22T11:16:09.058Z,4.11
2022-12-22T11:18:45.925Z,4.16
2022-12-22T11:21:22.021Z,4.24
2022-12-22T11:23:41.671Z,4.37
2022-12-22T11:26:31.439Z,4.44
2022-12-22T11:28:50.823Z,4.69
2022-12-22T11:31:22.072Z,4.91
2022-12-22T11:33:51.209Z,5.31
2022-12-22T11:35:59.865Z,5.46
2022-12-22T11:38:27.863Z,5.67
2022-12-22T11:40:35.166Z,5.67
2022-12-22T11:42:57.456Z,5.34
2022-12-22T11:45:22.943Z,5.26
2022-12-22T11:47:52.335Z,5.26
2022-12-22T11:50:58.601Z,5.35
2022-12-22T11:53:04.820Z,5.46
2022-12-22T11:55:22.252Z,5.53
2022-12-22T11:57:45.487Z,5.62
2022-12-22T12:00:18.929Z,5.62
2022-12-22T12:03:00.346Z,5.61
2022-12-22T12:05:16.067Z,5.62
2022-12-22T12:07:54.540Z,5.72
2022-12-22T12:10:15.847Z,5.68
2022-12-22T12:12:31.266Z,5.54
2022-12-22T12:14:44.588Z,5.44
2022-12-22T12:17:05.613Z,5.37
2022-12-22T12:19:28.300Z,5.22
2022-12-22T12:22:01.217Z,5.05
2022-12-22T12:24:12.250Z,4.83
2022-12-22T12:26:35.510Z,4.54
2022-12-22T12:29:01.720Z,4.42
2022-12-22T12:31:06.233Z,4.37
2022-12-22T12:33:23.328Z,4.38
2022-12-22T12:35:27.865Z,4.43
2022-12-22T12:37:34.662Z,4.32
2022-12-22T12:40:05.998Z,4.21
2022-12-22T12:42:19.975Z,4.08
2022-12-22T12:44:29.138Z,3.91
2022-12-22T12:46:57.450Z,3.75
2022-12-22T12:49:01.163Z,3.70
2022-12-22T12:51:03.191Z,3.65
2022-12-22T12:53:10.477Z,3.59
2022-12-22T12:55:29.749Z,3.58
2022-12-22T12:57:49.054Z,3.57
2022-12-22T12:59:55.170Z,3.56
2022-12-22T13:01:59.938Z,3.55
2022-12-22T13:04:04.789Z,3.53
2022-12-22T13:06:10.242Z,3.53
2022-12-22T13:08:33.359Z,3.50
2022-12-22T13:10:37.336Z,3.49
2022-12-22T13:12:58.625Z,3.49
2022-12-22T13:15:02.113Z,3.51
2022-12-22T13:17:50.543Z,3.49
2022-12-22T13:19:53.632Z,3.45
2022-12-22T13:21:58.142Z,3.44
2022-12-22T13:24:24.012Z,3.44
2022-12-22T13:26:32.920Z,3.42
2022-12-22T13:28:40.669Z,3.46
2022-12-22T13:30:50.754Z,3.45
2022-12-22T13:32:53.196Z,3.48
2022-12-22T13:35:30.953Z,3.53
2022-12-22T13:37:57.635Z,3.54
2022-12-22T13:40:33.064Z,3.52
2022-12-22T13:42:42.235Z,3.55
2022-12-22T13:44:44.456Z,3.57
2022-12-22T13:46:52.579Z,3.66
2022-12-22T13:48:57.650Z,3.63
2022-12-22T13:51:03.304Z,3.62
2022-12-22T13:53:08.504Z,3.63
2022-12-22T13:55:16.079Z,3.67
2022-12-22T13:57:25.236Z,3.69
2022-12-22T13:59:35.725Z,3.73
2022-12-22T14:01:50.558Z,3.79
2022-12-22T14:04:02.595Z,3.82
2022-12-22T14:06:43.146Z,3.79
2022-12-22T14:08:48.881Z,3.79
2022-12-22T14:10:52.392Z,3.83
2022-12-22T14:12:54.672Z,3.83
2022-12-22T14:15:01.472Z,3.87
2022-12-22T14:17:05.005Z,3.85
2022-12-22T14:19:07.092Z,3.83
2022-12-22T14:21:10.668Z,3.85
2022-12-22T14:23:24.963Z,3.90
2022-12-22T14:25:40.593Z,3.91
2022-12-22T14:27:53.505Z,3.94
2022-12-22T14:30:00.748Z,3.92
2022-12-22T14:32:04.195Z,3.95
2022-12-22T14:34:25.717Z,4.02
2022-12-22T14:36:40.807Z,4.11
2022-12-22T14:38:48.535Z,4.11
2022-12-22T14:40:57.207Z,4.07
2022-12-22T14:43:04.519Z,4.08
2022-12-22T14:45:15.331Z,3.99
2022-12-22T14:47:23.585Z,4.07
2022-12-22T14:49:25.782Z,4.07
2022-12-22T14:51:32.106Z,4.11
2022-12-22T14:53:45.708Z,4.06
2022-12-22T14:56:00.521Z,4.07
2022-12-22T14:58:31.445Z,4.00
2022-12-22T15:00:45.435Z,4.04
2022-12-22T15:03:00.217Z,4.00
2022-12-22T15:05:37.748Z,3.95
2022-12-22T15:08:07.279Z,3.97
2022-12-22T15:10:15.687Z,3.93
2022-12-22T15:12:19.107Z,3.93
2022-12-22T15:14:26.969Z,3.91
2022-12-22T15:16:29.218Z,3.87
2022-12-22T15:18:32.942Z,3.84
2022-12-22T15:20:39.330Z,3.89
2022-12-22T15:22:41.832Z,3.88
2022-12-22T15:24:44.829Z,3.94
2022-12-22T15:26:47.133Z,3.88
2022-12-22T15:28:49.215Z,3.89
2022-12-22T15:30:51.341Z,3.91
2022-12-22T15:32:55.203Z,4.00
2022-12-22T15:34:57.246Z,4.04
2022-12-22T15:36:59.406Z,3.96
2022-12-22T15:39:02.366Z,3.96
2022-12-22T15:41:05.093Z,4.06
2022-12-22T15:43:17.346Z,4.16
2022-12-22T15:45:30.154Z,4.10
2022-12-22T15:47:34.139Z,4.12
2022-12-22T15:49:36.295Z,4.27
2022-12-22T15:51:38.408Z,4.20
2022-12-22T15:53:40.392Z,4.21
2022-12-22T15:55:45.125Z,4.18
2022-12-22T15:57:49.767Z,4.19
2022-12-22T15:59:53.923Z,4.19
2022-12-22T16:02:01.454Z,4.25
2022-12-22T16:04:04.337Z,4.25
2022-12-22T16:06:14.013Z,4.28
2022-12-22T16:08:20.777Z,4.33
2022-12-22T16:10:27.102Z,4.26
2022-12-22T16:12:31.157Z,4.21
2022-12-22T16:14:38.873Z,4.28
2022-12-22T16:16:44.390Z,4.28
2022-12-22T16:18:47.373Z,4.33
2022-12-22T16:20:53.015Z,4.40
2022-12-22T16:22:55.077Z,4.44
2022-12-22T16:24:57.326Z,4.58
2022-12-22T16:27:00.709Z,4.52
2022-12-22T16:29:03.795Z,4.53
2022-12-22T16:31:21.905Z,4.52
2022-12-22T16:33:24.058Z,4.69
2022-12-22T16:35:29.343Z,4.66
2022-12-22T16:37:31.421Z,4.68
2022-12-22T16:39:33.613Z,4.68
2022-12-22T16:41:36.165Z,4.68
2022-12-22T16:43:51.596Z,4.70
2022-12-22T16:45:53.760Z,4.78
2022-12-22T16:47:59.851Z,4.81
2022-12-22T16:50:02.355Z,4.78
2022-12-22T16:52:04.606Z,4.81
2022-12-22T16:54:06.590Z,4.91
2022-12-22T16:56:15.042Z,4.99
2022-12-22T16:58:19.119Z,5.03
2022-12-22T17:00:24.716Z,4.93
2022-12-22T17:02:31.811Z,4.91
2022-12-22T17:04:34.028Z,4.97
2022-12-22T17:06:38.256Z,4.93
2022-12-22T17:08:43.581Z,4.91
2022-12-22T17:10:45.773Z,4.94
2022-12-22T17:12:50.356Z,4.98
2022-12-22T17:14:53.487Z,4.99
2022-12-22T17:16:55.430Z,5.00
2022-12-22T17:18:57.494Z,4.98
2022-12-22T17:21:00.781Z,4.98
2022-12-22T17:23:03.790Z,5.04
2022-12-22T17:25:18.444Z,5.07
2022-12-22T17:27:26.334Z,5.04
2022-12-22T17:29:28.591Z,5.04
2022-12-22T17:31:30.706Z,4.92
2022-12-22T17:33:33.989Z,4.95
2022-12-22T17:35:37.686Z,4.91
2022-12-22T17:37:44.522Z,4.99
2022-12-22T17:39:49.420Z,5.02
2022-12-22T17:41:56.758Z,5.06
2022-12-22T17:43:59.422Z,5.02
2022-12-22T17:46:01.392Z,5.02
2022-12-22T17:48:03.588Z,5.02
2022-12-22T17:50:06.793Z,5.07
2022-12-22T17:52:23.895Z,5.07
2022-12-22T17:54:27.700Z,5.06
2022-12-22T17:56:31.271Z,5.08
2022-12-22T17:58:34.298Z,5.07
2022-12-22T18:00:38.628Z,5.05
2022-12-22T18:02:40.850Z,5.12
2022-12-22T18:04:43.066Z,5.13
2022-12-22T18:06:46.203Z,5.11
2022-12-22T18:08:55.287Z,5.16
2022-12-22T18:10:57.349Z,5.27
2022-12-22T18:13:01.808Z,5.25
2022-12-22T18:15:15.865Z,5.24
2022-12-22T18:17:35.598Z,5.15
2022-12-22T18:19:48.035Z,5.22
2022-12-22T18:21:50.214Z,5.24
2022-12-22T18:23:52.695Z,5.25
2022-12-22T18:25:56.660Z,5.20
2022-12-22T18:27:59.129Z,5.18
2022-12-22T18:30:01.081Z,5.20
2022-12-22T18:32:03.118Z,5.10
2022-12-22T18:34:05.113Z,5.06
2022-12-22T18:36:11.174Z,4.92
2022-12-22T18:38:28.555Z,4.91
2022-12-22T18:40:35.432Z,4.98
2022-12-22T18:42:37.488Z,4.92
2022-12-22T18:44:41.471Z,4.91
2022-12-22T18:46:45.006Z,4.90
2022-12-22T18:48:48.699Z,4.92
2022-12-22T18:50:51.435Z,4.87
2022-12-22T18:52:54.307Z,4.88
2022-12-22T18:54:56.378Z,4.82
2022-12-22T18:56:58.791Z,4.86
2022-12-22T18:59:00.816Z,4.76
2022-12-22T19:01:04.050Z,4.74
2022-12-22T19:03:16.792Z,4.74
2022-12-22T19:05:24.739Z,4.80
2022-12-22T19:07:27.180Z,4.79
2022-12-22T19:09:29.370Z,4.78
2022-12-22T19:11:32.935Z,4.80
2022-12-22T19:13:41.039Z,4.78
2022-12-22T19:15:44.417Z,4.74
2022-12-22T19:17:46.517Z,4.77
2022-12-22T19:19:51.729Z,4.77
2022-12-22T19:21:55.092Z,4.70
2022-12-22T19:23:57.638Z,4.68
2022-12-22T19:26:08.325Z,4.67
2022-12-22T19:28:14.445Z,4.65
2022-12-22T19:30:20.149Z,4.66
2022-12-22T19:32:29.688Z,4.60
2022-12-22T19:34:32.327Z,4.64
2022-12-22T19:36:36.727Z,4.60
2022-12-22T19:38:39.008Z,4.63
2022-12-22T19:40:41.238Z,4.59
2022-12-22T19:42:55.237Z,4.61
2022-12-22T19:44:57.146Z,4.61
2022-12-22T19:47:02.682Z,4.63
2022-12-22T19:49:04.662Z,4.67
2022-12-22T19:51:06.736Z,4.61
2022-12-22T19:53:12.199Z,4.61
2022-12-22T19:55:14.822Z,4.59
2022-12-22T19:57:22.547Z,4.68
2022-12-22T19:59:38.788Z,4.64
2022-12-22T20:01:41.390Z,4.70
2022-12-22T20:03:43.551Z,4.72
2022-12-22T20:05:46.663Z,4.72
2022-12-22T20:07:49.789Z,4.77
2022-12-22T20:09:52.099Z,4.78
2022-12-22T20:11:54.255Z,4.80
2022-12-22T20:13:56.475Z,4.77
2022-12-22T20:16:00.412Z,4.87
2022-12-22T20:18:17.232Z,4.91
2022-12-22T20:20:36.852Z,4.96
2022-12-22T20:22:40.046Z,5.02
2022-12-22T20:24:43.842Z,5.04
2022-12-22T20:26:54.130Z,5.03
2022-12-22T20:28:56.904Z,5.02
2022-12-22T20:30:59.804Z,4.98
2022-12-22T20:33:02.388Z,4.91
2022-12-22T20:35:04.772Z,4.91
2022-12-22T20:37:13.051Z,4.89
2022-12-22T20:39:18.552Z,4.91
2022-12-22T20:41:22.265Z,4.81
2022-12-22T20:43:26.759Z,4.86
2022-12-22T20:45:32.045Z,4.91
2022-12-22T20:47:35.183Z,4.87
2022-12-22T20:49:37.368Z,4.92
2022-12-22T20:51:39.566Z,4.86
2022-12-22T20:53:42.660Z,4.83
2022-12-22T20:55:47.247Z,4.89
2022-12-22T20:57:55.654Z,4.90
2022-12-22T20:59:57.586Z,4.91
2022-12-22T21:01:59.742Z,4.85
2022-12-22T21:04:01.833Z,4.82
2022-12-22T21:06:20.852Z,4.84
2022-12-22T21:08:25.627Z,4.88
2022-12-22T21:10:27.618Z,4.89
2022-12-22T21:12:40.408Z,4.91
2022-12-22T21:14:52.190Z,4.91
2022-12-22T21:16:54.430Z,4.95
2022-12-22T21:19:20.359Z,4.93
2022-12-22T21:21:26.048Z,4.95
2022-12-22T21:23:30.408Z,4.97
2022-12-22T21:25:32.565Z,4.98
2022-12-22T21:27:42.041Z,5.02
2022-12-22T21:29:44.173Z,5.01
2022-12-22T21:31:47.252Z,5.03
2022-12-22T21:33:50.439Z,5.16
2022-12-22T21:35:59.970Z,5.10
2022-12-22T21:38:02.187Z,5.21
2022-12-22T21:40:04.664Z,5.22
2022-12-22T21:42:15.516Z,5.18
2022-12-22T21:44:19.848Z,5.16
2022-12-22T21:46:26.872Z,5.19
2022-12-22T21:48:31.911Z,5.08
2022-12-22T21:50:38.111Z,5.05
2022-12-22T21:52:40.039Z,5.13
2022-12-22T21:54:42.923Z,5.09
2022-12-22T21:56:56.499Z,5.14
2022-12-22T21:59:05.945Z,5.15
2022-12-22T22:01:15.955Z,5.14
2022-12-22T22:03:21.557Z,5.22
2022-12-22T22:05:26.325Z,5.24
2022-12-22T22:07:30.907Z,5.29
2022-12-22T22:09:39.002Z,5.29
2022-12-22T22:12:02.250Z,5.26
2022-12-22T22:14:09.287Z,5.24
2022-12-22T22:16:16.417Z,5.15
2022-12-22T22:18:25.518Z,5.08
2022-12-22T22:20:35.155Z,5.19
2022-12-22T22:22:37.167Z,5.12
2022-12-22T22:24:41.812Z,5.09
2022-12-22T22:26:52.770Z,4.99
2022-12-22T22:28:56.748Z,4.95
2022-12-22T22:30:58.987Z,4.85
2022-12-22T22:33:06.398Z,4.82
2022-12-22T22:35:15.319Z,4.79
2022-12-22T22:37:19.086Z,4.77
2022-12-22T22:39:27.231Z,4.76
2022-12-22T22:41:35.253Z,4.76
2022-12-22T22:43:39.746Z,4.76
2022-12-22T22:45:42.491Z,4.78
2022-12-22T22:47:44.580Z,4.72
2022-12-22T22:49:47.537Z,4.75
2022-12-22T22:51:49.595Z,4.64
2022-12-22T22:53:54.368Z,4.70
2022-12-22T22:56:02.125Z,4.73
2022-12-22T22:58:08.735Z,4.71
2022-12-22T23:00:22.057Z,4.69
2022-12-22T23:02:28.216Z,4.70
2022-12-22T23:04:34.872Z,4.68
2022-12-22T23:06:37.876Z,4.70
2022-12-22T23:08:39.922Z,4.64
2022-12-22T23:10:50.349Z,4.65
2022-12-22T23:12:54.925Z,4.72
2022-12-22T23:15:02.028Z,4.78
2022-12-22T23:17:04.371Z,4.72
2022-12-22T23:19:06.785Z,4.75
2022-12-22T23:21:09.769Z,4.73
2022-12-22T23:23:11.772Z,4.79
2022-12-22T23:25:13.771Z,4.75
2022-12-22T23:27:15.694Z,4.77
2022-12-22T23:29:17.606Z,4.75
2022-12-22T23:31:19.520Z,4.80
2022-12-22T23:33:22.048Z,4.82
2022-12-22T23:35:23.980Z,4.84
2022-12-22T23:37:26.914Z,4.86
2022-12-22T23:39:29.849Z,4.84
2022-12-22T23:41:31.905Z,4.88
2022-12-22T23:43:34.260Z,4.89
2022-12-22T23:45:38.580Z,4.89
2022-12-22T23:47:40.947Z,4.86
2022-12-22T23:49:42.926Z,4.97
2022-12-22T23:51:44.807Z,4.96
2022-12-22T23:53:46.716Z,4.95
2022-12-22T23:55:50.186Z,4.92
2022-12-22T23:57:53.903Z,4.96
2022-12-22T23:59:55.776Z,4.98
